createdAt,value
2019-01-16T00:04:54.391Z,99705.55
2019-01-16T00:09:59.519Z,99711.27
2019-01-16T00:15:20.906Z,99713.08
2019-01-16T00:20:28.914Z,99705.19
2019-01-16T00:25:36.713Z,99710.13
2019-01-16T00:30:50.866Z,99709.34
2019-01-16T00:35:58.639Z,99713.33
2019-01-16T00:41:15.263Z,99717.48
2019-01-16T00:46:20.371Z,99720.25
2019-01-16T00:51:25.478Z,99726.25
2019-01-16T00:56:39.471Z,99730.40
2019-01-16T01:01:44.582Z,99731.78
2019-01-16T01:06:49.685Z,99739.31
2019-01-16T01:12:12.688Z,99742.69
2019-01-16T01:17:32.609Z,99738.35
2019-01-16T01:22:40.220Z,99744.67
2019-01-16T01:27:57.194Z,99739.73
2019-01-16T01:33:02.310Z,99739.56
2019-01-16T01:38:25.609Z,99746.30
2019-01-16T01:43:30.721Z,99753.23
2019-01-16T01:48:40.094Z,99754.61
2019-01-16T01:54:01.605Z,99757.20
2019-01-16T01:59:12.872Z,99762.59
2019-01-16T02:04:29.813Z,99742.81
2019-01-16T02:09:40.569Z,99755.48
2019-01-16T02:15:02.301Z,99767.17
2019-01-16T02:20:19.388Z,99764.82
2019-01-16T02:25:24.512Z,99766.20
2019-01-16T02:30:32.273Z,99763.44
2019-01-16T02:35:37.396Z,99766.98
2019-01-16T02:40:42.514Z,99768.02
2019-01-16T02:45:50.636Z,99762.29
2019-01-16T02:51:07.830Z,99765.66
2019-01-16T02:56:29.138Z,99758.56
2019-01-16T03:01:34.735Z,99754.41
2019-01-16T03:06:42.665Z,99739.95
2019-01-16T03:11:47.785Z,99754.41
2019-01-16T03:16:52.889Z,99751.48
2019-01-16T03:22:16.360Z,99747.14
2019-01-16T03:27:36.501Z,99751.91
2019-01-16T03:32:47.276Z,99753.89
2019-01-16T03:38:08.306Z,99753.70
2019-01-16T03:43:16.090Z,99757.08
2019-01-16T03:48:21.189Z,99747.20
2019-01-16T03:53:35.030Z,99749.19
2019-01-16T03:58:49.129Z,99745.82
2019-01-16T04:03:54.240Z,99723.66
2019-01-16T04:09:02.293Z,99722.70
2019-01-16T04:14:23.497Z,99717.94
2019-01-16T04:19:40.685Z,99719.18
2019-01-16T04:25:01.944Z,99714.23
2019-01-16T04:30:25.001Z,99725.31
2019-01-16T04:35:46.228Z,99701.59
2019-01-16T04:40:51.336Z,99704.19
2019-01-16T04:46:01.897Z,99706.36
2019-01-16T04:51:09.937Z,99707.73
2019-01-16T04:56:31.281Z,99714.66
2019-01-16T05:01:41.996Z,99717.61
2019-01-16T05:06:59.397Z,99729.30
2019-01-16T05:12:07.585Z,99728.52
2019-01-16T05:17:21.903Z,99719.84
2019-01-16T05:22:27.020Z,99719.23
2019-01-16T05:27:32.130Z,99718.27
2019-01-16T05:32:49.198Z,99714.91
2019-01-16T05:37:54.299Z,99712.13
2019-01-16T05:43:15.350Z,99716.11
2019-01-16T05:48:20.459Z,99721.31
2019-01-16T05:53:25.561Z,99718.70
2019-01-16T05:58:39.478Z,99715.78
2019-01-16T06:03:47.220Z,99715.14
2019-01-16T06:08:55.172Z,99714.21
2019-01-16T06:14:03.188Z,99717.16
2019-01-16T06:19:24.318Z,99719.14
2019-01-16T06:24:46.092Z,99718.97
2019-01-16T06:30:07.358Z,99718.36
2019-01-16T06:35:12.527Z,99716.38
2019-01-16T06:40:20.040Z,99705.72
2019-01-16T06:45:30.861Z,99688.92
2019-01-16T06:50:53.834Z,99689.70
2019-01-16T06:56:01.756Z,99694.47
2019-01-16T07:01:15.770Z,99692.66
2019-01-16T07:06:26.643Z,99693.08
2019-01-16T07:11:37.218Z,99704.34
2019-01-16T07:16:58.320Z,99706.32
2019-01-16T07:22:09.381Z,99712.64
2019-01-16T07:27:17.104Z,99711.08
2019-01-16T07:32:34.249Z,99720.17
2019-01-16T07:37:39.364Z,99719.56
2019-01-16T07:42:47.286Z,99708.31
2019-01-16T07:47:58.498Z,99709.09
2019-01-16T07:53:15.470Z,99710.30
2019-01-16T07:58:23.269Z,99697.02
2019-01-16T08:03:44.803Z,99715.66
2019-01-16T08:08:52.314Z,99719.98
2019-01-16T08:14:15.237Z,99714.15
2019-01-16T08:19:20.372Z,99711.25
2019-01-16T08:24:43.365Z,99700.70
2019-01-16T08:29:48.469Z,99705.22
2019-01-16T08:34:56.490Z,99708.48
2019-01-16T08:40:13.659Z,99719.77
2019-01-16T08:45:24.901Z,99712.92
2019-01-16T08:50:46.088Z,99708.91
2019-01-16T08:55:53.642Z,99715.22
2019-01-16T09:01:15.305Z,99712.85
2019-01-16T09:06:26.409Z,99717.61
2019-01-16T09:11:46.681Z,99719.41
2019-01-16T09:17:04.001Z,99719.48
2019-01-16T09:22:09.102Z,99726.81
2019-01-16T09:27:26.342Z,99720.75
2019-01-16T09:32:43.213Z,99714.55
2019-01-16T09:37:50.757Z,99715.02
2019-01-16T09:42:58.684Z,99715.69
2019-01-16T09:48:10.149Z,99716.34
2019-01-16T09:53:24.194Z,99711.88
2019-01-16T09:58:44.301Z,99710.00
2019-01-16T10:03:49.417Z,99710.14
2019-01-16T10:08:54.533Z,99703.92
2019-01-16T10:14:02.318Z,99711.76
2019-01-16T10:19:10.361Z,99699.22
2019-01-16T10:24:30.749Z,99695.02
2019-01-16T10:29:44.668Z,99688.20
2019-01-16T10:35:05.660Z,99673.53
2019-01-16T10:40:14.006Z,99667.13
2019-01-16T10:45:28.324Z,99653.23
2019-01-16T10:50:51.487Z,99652.36
2019-01-16T10:56:08.815Z,99640.27
2019-01-16T11:01:19.935Z,99636.02
2019-01-16T11:06:30.714Z,99621.34
2019-01-16T11:11:51.077Z,99618.15
2019-01-16T11:16:59.399Z,99617.12
2019-01-16T11:22:13.522Z,99597.50
2019-01-16T11:27:24.490Z,99594.49
2019-01-16T11:32:46.018Z,99585.91
2019-01-16T11:38:07.289Z,99564.30
2019-01-16T11:43:28.583Z,99568.03
2019-01-16T11:48:42.445Z,99562.25
2019-01-16T11:53:47.545Z,99550.90
2019-01-16T11:58:52.647Z,99541.56
2019-01-16T12:04:03.734Z,99539.92
2019-01-16T12:09:17.373Z,99526.23
2019-01-16T12:14:38.652Z,99530.56
2019-01-16T12:19:46.247Z,99520.87
2019-01-16T12:24:57.577Z,99510.15
2019-01-16T12:30:05.608Z,99502.27
2019-01-16T12:35:10.722Z,99499.85
2019-01-16T12:40:24.665Z,99492.14
2019-01-16T12:45:32.322Z,99490.16
2019-01-16T12:50:37.441Z,99495.09
2019-01-16T12:55:44.937Z,99483.23
2019-01-16T13:00:55.734Z,99477.09
2019-01-16T13:06:15.879Z,99466.62
2019-01-16T13:11:21.150Z,99467.22
2019-01-16T13:16:26.260Z,99459.34
2019-01-16T13:21:39.900Z,99456.62
2019-01-16T13:26:44.085Z,99447.30
2019-01-16T13:32:04.258Z,99453.11
2019-01-16T13:37:12.354Z,99443.09
2019-01-16T13:42:23.450Z,99443.09
2019-01-16T13:47:34.341Z,99431.63
2019-01-16T13:52:39.437Z,99409.68
2019-01-16T13:57:44.533Z,99420.58
2019-01-16T14:02:52.757Z,99419.63
2019-01-16T14:07:57.857Z,99410.79
2019-01-16T14:13:08.702Z,99408.13
2019-01-16T14:18:16.213Z,99411.17
2019-01-16T14:23:27.488Z,99403.19
2019-01-16T14:28:44.857Z,99387.72
2019-01-16T14:34:02.163Z,99404.25
2019-01-16T14:39:12.621Z,99395.66
2019-01-16T14:44:20.366Z,99407.27
2019-01-16T14:49:25.475Z,99399.73
2019-01-16T14:54:33.341Z,99391.44
2019-01-16T14:59:56.585Z,99385.00
2019-01-16T15:05:04.402Z,99385.96
2019-01-16T15:10:26.306Z,99375.84
2019-01-16T15:15:34.095Z,99365.55
2019-01-16T15:20:47.938Z,99360.17
2019-01-16T15:25:53.037Z,99361.28
2019-01-16T15:31:15.045Z,99365.00
2019-01-16T15:36:20.205Z,99364.57
2019-01-16T15:41:25.321Z,99349.52
2019-01-16T15:46:35.952Z,99346.92
2019-01-16T15:51:46.685Z,99351.39
2019-01-16T15:56:51.807Z,99352.02
2019-01-16T16:02:02.448Z,99349.40
2019-01-16T16:07:10.150Z,99338.32
2019-01-16T16:12:15.409Z,99350.78
2019-01-16T16:17:20.530Z,99336.16
2019-01-16T16:22:25.641Z,99321.88
2019-01-16T16:27:39.769Z,99324.94
2019-01-16T16:32:53.861Z,99327.84
2019-01-16T16:38:05.083Z,99323.09
2019-01-16T16:43:28.289Z,99312.19
2019-01-16T16:48:49.274Z,99297.91
2019-01-16T16:54:10.666Z,99284.48
2019-01-16T16:59:18.729Z,99278.34
2019-01-16T17:04:26.775Z,99256.02
2019-01-16T17:09:31.873Z,99249.69
2019-01-16T17:14:36.995Z,99240.61
2019-01-16T17:19:42.109Z,99236.45
2019-01-16T17:24:49.659Z,99223.23
2019-01-16T17:29:54.754Z,99220.78
2019-01-16T17:35:15.930Z,99225.28
2019-01-16T17:40:21.031Z,99218.53
2019-01-16T17:45:42.497Z,99215.64
2019-01-16T17:50:59.463Z,99190.11
2019-01-16T17:56:13.766Z,99186.73
2019-01-16T18:01:18.861Z,99170.28
2019-01-16T18:06:29.697Z,99162.31
2019-01-16T18:11:40.472Z,99176.16
2019-01-16T18:16:57.438Z,99173.73
2019-01-16T18:22:20.953Z,99165.42
2019-01-16T18:27:29.073Z,99166.95
2019-01-16T18:32:50.050Z,99160.36
2019-01-16T18:37:57.833Z,99156.20
2019-01-16T18:43:17.631Z,99151.61
2019-01-16T18:48:37.784Z,99138.38
2019-01-16T18:53:52.099Z,99129.63
2019-01-16T18:59:00.127Z,99123.48
2019-01-16T19:04:17.123Z,99116.08
2019-01-16T19:09:22.225Z,99112.09
2019-01-16T19:14:30.270Z,99100.58
2019-01-16T19:19:35.365Z,99074.86
2019-01-16T19:24:46.752Z,99073.20
2019-01-16T19:30:08.087Z,99083.52
2019-01-16T19:35:13.186Z,99084.90
2019-01-16T19:40:34.679Z,99087.23
2019-01-16T19:45:57.950Z,99073.55
2019-01-16T19:51:09.046Z,99074.33
2019-01-16T19:56:22.942Z,99066.76
2019-01-16T20:01:33.780Z,99050.91
2019-01-16T20:06:44.719Z,99032.30
2019-01-16T20:11:55.848Z,99035.06
2019-01-16T20:17:00.946Z,99022.59
2019-01-16T20:22:18.153Z,99012.12
2019-01-16T20:27:25.672Z,99022.16
2019-01-16T20:32:48.870Z,99005.80
2019-01-16T20:38:08.864Z,99008.73
2019-01-16T20:43:32.081Z,98997.48
2019-01-16T20:48:43.011Z,98997.48
2019-01-16T20:53:51.021Z,98989.65
2019-01-16T20:58:56.133Z,98977.95
2019-01-16T21:04:07.156Z,98981.17
2019-01-16T21:09:21.033Z,98974.08
2019-01-16T21:14:38.089Z,98964.82
2019-01-16T21:19:45.964Z,98946.04
2019-01-16T21:24:51.152Z,98949.55
2019-01-16T21:29:59.177Z,98941.55
2019-01-16T21:35:10.189Z,98945.70
2019-01-16T21:40:31.673Z,98932.49
2019-01-16T21:45:49.457Z,98928.95
2019-01-16T21:50:56.085Z,98923.84
2019-01-16T21:56:17.468Z,98910.94
2019-01-16T22:01:46.058Z,98896.75
2019-01-16T22:07:09.413Z,98906.45
2019-01-16T22:12:26.364Z,98891.82
2019-01-16T22:17:49.681Z,98892.44
2019-01-16T22:22:57.328Z,98889.05
2019-01-16T22:28:11.499Z,98881.96
2019-01-16T22:33:28.197Z,98866.56
2019-01-16T22:38:38.892Z,98859.63
2019-01-16T22:43:52.633Z,98848.55
2019-01-16T22:49:06.606Z,98847.00
2019-01-16T22:54:14.656Z,98826.84
2019-01-16T22:59:19.759Z,98814.55
2019-01-16T23:04:24.857Z,98802.69
2019-01-16T23:09:47.784Z,98802.69
2019-01-16T23:15:01.938Z,98806.70
2019-01-16T23:20:27.716Z,98799.62
2019-01-16T23:25:45.143Z,98785.93
2019-01-16T23:30:52.940Z,98778.23
2019-01-16T23:35:58.064Z,98763.00
2019-01-16T23:41:03.167Z,98756.36
2019-01-16T23:46:14.194Z,98730.98
2019-01-16T23:51:31.558Z,98738.52
2019-01-16T23:56:51.420Z,98724.50
